INFORMAÇÕES METEOROLÓGICAS
METAR FOR SBPA
ADDS - METARS form results

(1215 UTC 18 July 2019)
Data provider http://aviationweather.gov/metar/data/
 
METAR text: SBPA 181200Z VRB01KT 2000 BCFG BR SCT003 12/12 Q1026
Conditions at: SBPA (PORTO ALEGRE/SAL, BR) observed 1200 UTC 18 July 2019
Temperature: 12.0°C (54°F)
Dewpoint: 12.0°C (54°F) [RH = 100%]
Pressure (altimeter): 30.30 inches Hg (1026.0 mb)
Winds: variable direction winds at 1 MPH (1 knots; 0.5 m/s)
Visibility: 1.24 miles (2.00 km)
Ceiling: at least 12,000 feet AGL
Clouds: scattered clouds at 300 feet AGL
Weather: BCFG BR  (patches of fog, mist)

METAR text: SBPA 181130Z VRB02KT 2000 BR SCT002 11/11 Q1025
Conditions at: SBPA (PORTO ALEGRE/SAL, BR) observed 1130 UTC 18 July 2019
Temperature: 11.0°C (52°F)
Dewpoint: 11.0°C (52°F) [RH = 100%]
Pressure (altimeter): 30.27 inches Hg (1025.0 mb)
Winds: variable direction winds at 2 MPH (2 knots; 1.0 m/s)
Visibility: 1.24 miles (2.00 km)
Ceiling: at least 12,000 feet AGL
Clouds: scattered clouds at 200 feet AGL
Weather: BR  (mist)

Forecast for: SBPA (PORTO ALEGRE/SAL, BR)
Text: TAF SBPA 180900Z 1812/1912 11005KT CAVOK TX22/1818Z TN12/1909Z RMK PD W
Forecast period: 1200 UTC 18 July 2019 to 1200 UTC 19 July 2019
Forecast type: FROM: standard forecast or significant change
Winds: from the ESE (110 degrees) at 6 MPH (5 knots; 2.6 m/s)
Visibility: 6 or more miles 10+ km)
Ceiling: unknown
Clouds: missing
Weather: no significant weather forecast for this period

 MAPA DO AEROPORTO

 INFORMAÇÕES DA PISTA
Pista 11 Tamanho da pista 7480 ft Largura da pista 138 ft
Elevação da pista 11 ft Ranhura da pista 0 ft Proa da pista 91
Pista 29 Tamanho da pista 7480 ft Largura da pista 138 ft
Elevação da pista 11 ft Ranhura da pista 0 ft Proa da pista 271

 FREQUÊNCIAS DO AEROPORTO
Tipo APP Nome PALEGRE AP Frequência 119 MHZ
Tipo ATIS Nome ATIS Frequência 127.85 MHZ
Tipo GND Nome GND Frequência 121.9 MHZ
Tipo TWR Nome PALEGRE TW Frequência 118.1 MHZ

 AUXÍLIOS DE NAVEGAÇÃO PRÓXIMOS AO AEROPORTO
Tipo NDB Nome Pestana Frequência 395 KHZ
Tipo NDB Nome Guaiba Frequência 345 KHZ
Tipo NDB Nome Salgado Frequência 315 KHZ
Tipo NDB Nome Porto Alegre Frequência 330 KHZ
Tipo VOR-DME Nome Porto Alegre Frequência 114000 KHZ





Powered by Virtual Airlines Manager [v2.6.2]